sensor_id;sensor_type;location;lat;lon;timestamp;pressure;altitude;pressure_sealevel;temperature;humidity
45113;BME280;30873;53.908;27.576;2022-12-10T00:04:22;1011.5;;;3.5;68.4
45113;BME280;30873;53.908;27.576;2022-12-10T00:09:46;1011.5;;;3.5;68.2
45113;BME280;30873;53.908;27.576;2022-12-10T00:14:42;1011.5;;;3.4;68.2
45113;BME280;30873;53.908;27.576;2022-12-10T00:19:46;1011.4;;;3.4;68.3
45113;BME280;30873;53.908;27.576;2022-12-10T00:24:44;1011.4;;;3.4;68.3
45113;BME280;30873;53.908;27.576;2022-12-10T00:29:56;1011.4;;;3.5;68.3
45113;BME280;30873;53.908;27.576;2022-12-10T00:34:14;1011.4;;;3.5;68.1
45113;BME280;30873;53.908;27.576;2022-12-10T00:39:16;1011.3;;;3.6;67.9
45113;BME280;30873;53.908;27.576;2022-12-10T00:44:32;1011.3;;;3.5;67.7
45113;BME280;30873;53.908;27.576;2022-12-10T00:49:34;1011.3;;;3.4;68
45113;BME280;30873;53.908;27.576;2022-12-10T00:54:58;1011.2;;;3.4;68.2
45113;BME280;30873;53.908;27.576;2022-12-10T00:59:46;1011.2;;;3.3;68.6
45113;BME280;30873;53.908;27.576;2022-12-10T01:04:15;1011.1;;;3.2;69.1
45113;BME280;30873;53.908;27.576;2022-12-10T01:09:46;1011.1;;;3.2;69.4
45113;BME280;30873;53.908;27.576;2022-12-10T01:15:00;1011;;;3.2;69.4
45113;BME280;30873;53.908;27.576;2022-12-10T01:19:52;1011;;;3.2;69.5
45113;BME280;30873;53.908;27.576;2022-12-10T01:24:14;1010.9;;;3.3;69.3
45113;BME280;30873;53.908;27.576;2022-12-10T01:30:02;1010.9;;;3.2;69.2
45113;BME280;30873;53.908;27.576;2022-12-10T01:34:26;1010.8;;;3.2;69.1
45113;BME280;30873;53.908;27.576;2022-12-10T01:39:36;1010.8;;;3.1;69.3
45113;BME280;30873;53.908;27.576;2022-12-10T01:45:32;1010.7;;;3.2;69.2
45113;BME280;30873;53.908;27.576;2022-12-10T01:49:39;1010.7;;;3.3;69.2
45113;BME280;30873;53.908;27.576;2022-12-10T01:55:00;1010.6;;;3.2;68.9
45113;BME280;30873;53.908;27.576;2022-12-10T01:59:49;1010.6;;;3.2;69
45113;BME280;30873;53.908;27.576;2022-12-10T02:04:43;1010.6;;;3.1;68.9
45113;BME280;30873;53.908;27.576;2022-12-10T02:09:55;1010.6;;;3;69.2
45113;BME280;30873;53.908;27.576;2022-12-10T02:14:52;1010.5;;;3;69.2
45113;BME280;30873;53.908;27.576;2022-12-10T02:19:58;1010.4;;;2.9;69.3
45113;BME280;30873;53.908;27.576;2022-12-10T02:24:15;1010.4;;;2.8;69.3
45113;BME280;30873;53.908;27.576;2022-12-10T02:30:03;1010.4;;;2.7;69.6
45113;BME280;30873;53.908;27.576;2022-12-10T02:34:37;1010.3;;;2.7;69.9
45113;BME280;30873;53.908;27.576;2022-12-10T02:40:04;1010.2;;;2.7;69.7
45113;BME280;30873;53.908;27.576;2022-12-10T02:44:26;1010.1;;;2.7;69.8
45113;BME280;30873;53.908;27.576;2022-12-10T02:49:15;1010.1;;;2.7;69.6
45113;BME280;30873;53.908;27.576;2022-12-10T02:54:51;1010;;;2.7;69.8
45113;BME280;30873;53.908;27.576;2022-12-10T03:00:05;1010;;;2.6;69.5
45113;BME280;30873;53.908;27.576;2022-12-10T03:04:16;1010;;;2.6;69.9
45113;BME280;30873;53.908;27.576;2022-12-10T03:10:03;1010.1;;;2.7;69.6
45113;BME280;30873;53.908;27.576;2022-12-10T03:14:50;1010;;;2.7;69.3
45113;BME280;30873;53.908;27.576;2022-12-10T03:19:37;1010;;;2.7;69.3
45113;BME280;30873;53.908;27.576;2022-12-10T03:24:36;1010;;;2.8;69.1
45113;BME280;30873;53.908;27.576;2022-12-10T03:30:03;1010;;;2.8;68.8
45113;BME280;30873;53.908;27.576;2022-12-10T03:34:37;1009.9;;;2.7;68.9
45113;BME280;30873;53.908;27.576;2022-12-10T03:40:00;1009.8;;;2.6;69.1
45113;BME280;30873;53.908;27.576;2022-12-10T03:44:27;1009.8;;;2.7;69.1
45113;BME280;30873;53.908;27.576;2022-12-10T03:49:39;1009.8;;;2.6;68.9
45113;BME280;30873;53.908;27.576;2022-12-10T03:54:48;1009.8;;;2.6;69.1
45113;BME280;30873;53.908;27.576;2022-12-10T04:00:01;1009.7;;;2.6;69
45113;BME280;30873;53.908;27.576;2022-12-10T04:04:26;1009.7;;;2.6;69.1
45113;BME280;30873;53.908;27.576;2022-12-10T04:10:00;1009.7;;;2.6;68.9
45113;BME280;30873;53.908;27.576;2022-12-10T04:14:48;1009.7;;;2.6;68.9
45113;BME280;30873;53.908;27.576;2022-12-10T04:19:15;1009.7;;;2.6;68.8
45113;BME280;30873;53.908;27.576;2022-12-10T04:24:27;1009.7;;;2.6;68.9
45113;BME280;30873;53.908;27.576;2022-12-10T04:30:00;1009.7;;;2.5;69
45113;BME280;30873;53.908;27.576;2022-12-10T04:34:34;1009.7;;;2.4;69.1
45113;BME280;30873;53.908;27.576;2022-12-10T04:40:00;1009.6;;;2.4;69.3
45113;BME280;30873;53.908;27.576;2022-12-10T04:44:26;1009.7;;;2.5;69.3
45113;BME280;30873;53.908;27.576;2022-12-10T04:49:15;1009.7;;;2.6;69
45113;BME280;30873;53.908;27.576;2022-12-10T04:54:48;1009.6;;;2.5;69
45113;BME280;30873;53.908;27.576;2022-12-10T05:00:03;1009.5;;;2.5;69.3
45113;BME280;30873;53.908;27.576;2022-12-10T05:04:26;1009.5;;;2.5;69.2
45113;BME280;30873;53.908;27.576;2022-12-10T05:10:03;1009.4;;;2.6;69.2
45113;BME280;30873;53.908;27.576;2022-12-10T05:14:50;1009.4;;;2.7;69.3
45113;BME280;30873;53.908;27.576;2022-12-10T05:19:38;1009.3;;;2.7;69.1
45113;BME280;30873;53.908;27.576;2022-12-10T05:24:15;1009.3;;;2.7;69.2
45113;BME280;30873;53.908;27.576;2022-12-10T05:30:03;1009.2;;;2.7;69.2
45113;BME280;30873;53.908;27.576;2022-12-10T05:34:37;1009.2;;;2.8;69.2
45113;BME280;30873;53.908;27.576;2022-12-10T05:40:00;1009.2;;;2.8;68.9
45113;BME280;30873;53.908;27.576;2022-12-10T05:44:15;1009.3;;;2.9;68.9
45113;BME280;30873;53.908;27.576;2022-12-10T05:49:14;1009.2;;;2.9;68.7
45113;BME280;30873;53.908;27.576;2022-12-10T05:54:51;1009.2;;;2.7;68.8
45113;BME280;30873;53.908;27.576;2022-12-10T06:00:03;1009.2;;;2.6;68.8
45113;BME280;30873;53.908;27.576;2022-12-10T06:04:36;1009.3;;;2.7;69.2
45113;BME280;30873;53.908;27.576;2022-12-10T06:10:03;1009.3;;;2.8;69.1
45113;BME280;30873;53.908;27.576;2022-12-10T06:14:51;1009.2;;;2.8;68.7
45113;BME280;30873;53.908;27.576;2022-12-10T06:19:36;1009.2;;;2.7;68.8
45113;BME280;30873;53.908;27.576;2022-12-10T06:24:15;1009.2;;;2.7;68.9
45113;BME280;30873;53.908;27.576;2022-12-10T06:30:01;1009.1;;;2.7;68.7
45113;BME280;30873;53.908;27.576;2022-12-10T06:34:37;1009;;;2.6;69
45113;BME280;30873;53.908;27.576;2022-12-10T06:40:01;1008.9;;;2.5;68.9
45113;BME280;30873;53.908;27.576;2022-12-10T06:44:27;1008.9;;;2.5;69.1
45113;BME280;30873;53.908;27.576;2022-12-10T06:49:53;1008.9;;;2.5;69.1
45113;BME280;30873;53.908;27.576;2022-12-10T06:55:03;1008.8;;;2.4;69.3
45113;BME280;30873;53.908;27.576;2022-12-10T06:59:37;1008.8;;;2.5;69.3
45113;BME280;30873;53.908;27.576;2022-12-10T07:05:01;1008.8;;;2.5;69.2
45113;BME280;30873;53.908;27.576;2022-12-10T07:09:15;1008.8;;;2.7;69
45113;BME280;30873;53.908;27.576;2022-12-10T07:14:39;1008.7;;;2.9;68.7
45113;BME280;30873;53.908;27.576;2022-12-10T07:19:53;1008.7;;;2.9;68
45113;BME280;30873;53.908;27.576;2022-12-10T07:25:03;1008.7;;;2.9;68
45113;BME280;30873;53.908;27.576;2022-12-10T07:29:39;1008.7;;;2.8;68.1
45113;BME280;30873;53.908;27.576;2022-12-10T07:35:03;1008.6;;;2.9;68.2
45113;BME280;30873;53.908;27.576;2022-12-10T07:39:53;1008.6;;;2.9;68.1
45113;BME280;30873;53.908;27.576;2022-12-10T07:44:39;1008.6;;;2.9;68.1
45113;BME280;30873;53.908;27.576;2022-12-10T07:49:15;1008.6;;;3;68.2
45113;BME280;30873;53.908;27.576;2022-12-10T07:55:03;1008.6;;;3;67.9
45113;BME280;30873;53.908;27.576;2022-12-10T07:59:37;1008.7;;;3;67.7
45113;BME280;30873;53.908;27.576;2022-12-10T08:05:03;1008.6;;;2.9;67.9
45113;BME280;30873;53.908;27.576;2022-12-10T08:09:23;1008.6;;;2.9;67.6
45113;BME280;30873;53.908;27.576;2022-12-10T08:14:35;1008.5;;;2.8;67.8
45113;BME280;30873;53.908;27.576;2022-12-10T08:19:53;1008.4;;;2.7;68.1
45113;BME280;30873;53.908;27.576;2022-12-10T08:25:05;1008.4;;;2.8;68
45113;BME280;30873;53.908;27.576;2022-12-10T08:29:15;1008.4;;;2.8;68.2
45113;BME280;30873;53.908;27.576;2022-12-10T08:34:59;1008.3;;;2.9;68
45113;BME280;30873;53.908;27.576;2022-12-10T08:39:47;1008.2;;;2.9;67.8
45113;BME280;30873;53.908;27.576;2022-12-10T08:44:25;1008.2;;;3;67.6
45113;BME280;30873;53.908;27.576;2022-12-10T08:49:15;1008.2;;;3.1;67.6
45113;BME280;30873;53.908;27.576;2022-12-10T08:55:07;1008.2;;;3.2;67.2
45113;BME280;30873;53.908;27.576;2022-12-10T08:59:35;1008.1;;;3.4;66.7
45113;BME280;30873;53.908;27.576;2022-12-10T09:05:05;1008.1;;;3.8;66.1
45113;BME280;30873;53.908;27.576;2022-12-10T09:09:27;1008;;;4;65.2
45113;BME280;30873;53.908;27.576;2022-12-10T09:15:05;1008;;;4.2;64.7
45113;BME280;30873;53.908;27.576;2022-12-10T09:19:53;1008;;;4.3;64.3
45113;BME280;30873;53.908;27.576;2022-12-10T09:25:03;1008;;;4.2;64.2
45113;BME280;30873;53.908;27.576;2022-12-10T09:29:27;1008;;;4.1;64.3
45113;BME280;30873;53.908;27.576;2022-12-10T09:35:01;1007.9;;;3.8;64.7
45113;BME280;30873;53.908;27.576;2022-12-10T09:39:49;1007.9;;;3.9;64.9
45113;BME280;30873;53.908;27.576;2022-12-10T09:44:17;1007.9;;;4.1;64.7
45113;BME280;30873;53.908;27.576;2022-12-10T09:49:38;1007.8;;;4.3;64.4
45113;BME280;30873;53.908;27.576;2022-12-10T09:54:59;1007.7;;;4.5;64
45113;BME280;30873;53.908;27.576;2022-12-10T09:59:49;1007.7;;;4.8;63.1
45113;BME280;30873;53.908;27.576;2022-12-10T10:05:02;1007.6;;;4.9;62.7
45113;BME280;30873;53.908;27.576;2022-12-10T10:09:15;1007.4;;;5.2;63.2
45113;BME280;30873;53.908;27.576;2022-12-10T10:14:25;1007.5;;;5.4;61.8
45113;BME280;30873;53.908;27.576;2022-12-10T10:19:49;1007.5;;;5;61.8
45113;BME280;30873;53.908;27.576;2022-12-10T10:25:01;1007.6;;;4.7;62.7
45113;BME280;30873;53.908;27.576;2022-12-10T10:29:15;1007.6;;;4.7;62.6
45113;BME280;30873;53.908;27.576;2022-12-10T10:35:01;1007.6;;;4.5;62.9
45113;BME280;30873;53.908;27.576;2022-12-10T10:39:51;1007.4;;;4.6;63.4
45113;BME280;30873;53.908;27.576;2022-12-10T10:44:39;1007.3;;;4.9;63
45113;BME280;30873;53.908;27.576;2022-12-10T10:49:19;1007.2;;;4.8;62
45113;BME280;30873;53.908;27.576;2022-12-10T10:55:03;1007.2;;;4.8;62.1
45113;BME280;30873;53.908;27.576;2022-12-10T10:59:28;1007.2;;;4.6;62.4
45113;BME280;30873;53.908;27.576;2022-12-10T11:05:05;1007.2;;;4.4;62.8
45113;BME280;30873;53.908;27.576;2022-12-10T11:09:35;1007.2;;;4.5;63
45113;BME280;30873;53.908;27.576;2022-12-10T11:14:51;1007.2;;;4.4;63.1
45113;BME280;30873;53.908;27.576;2022-12-10T11:19:54;1007.1;;;4.4;63.3
45113;BME280;30873;53.908;27.576;2022-12-10T11:25:01;1007.1;;;4.2;63.6
45113;BME280;30873;53.908;27.576;2022-12-10T11:29:29;1007;;;4.1;63.9
45113;BME280;30873;53.908;27.576;2022-12-10T11:35:07;1006.9;;;4.1;64.4
45113;BME280;30873;53.908;27.576;2022-12-10T11:39:55;1006.9;;;4;64.3
45113;BME280;30873;53.908;27.576;2022-12-10T11:44:40;1006.9;;;4;64.3
45113;BME280;30873;53.908;27.576;2022-12-10T11:49:26;1007;;;4;64.5
45113;BME280;30873;53.908;27.576;2022-12-10T11:55:02;1007;;;4;64.6
45113;BME280;30873;53.908;27.576;2022-12-10T11:59:39;1007;;;4;64.6
45113;BME280;30873;53.908;27.576;2022-12-10T12:05:07;1007;;;4;64.7
45113;BME280;30873;53.908;27.576;2022-12-10T12:09:38;1006.9;;;3.9;64.7
45113;BME280;30873;53.908;27.576;2022-12-10T12:14:27;1006.8;;;4;64.8
45113;BME280;30873;53.908;27.576;2022-12-10T12:19:51;1006.7;;;4.1;64.6
45113;BME280;30873;53.908;27.576;2022-12-10T12:24:49;1006.7;;;4;64.8
45113;BME280;30873;53.908;27.576;2022-12-10T12:29:28;1006.7;;;4;64.9
45113;BME280;30873;53.908;27.576;2022-12-10T12:35:04;1006.7;;;3.8;65
45113;BME280;30873;53.908;27.576;2022-12-10T12:39:50;1006.7;;;3.7;65.2
45113;BME280;30873;53.908;27.576;2022-12-10T12:44:41;1006.7;;;3.6;65.7
45113;BME280;30873;53.908;27.576;2022-12-10T12:49:37;1006.7;;;3.5;65.8
45113;BME280;30873;53.908;27.576;2022-12-10T12:55:04;1006.6;;;3.3;66.2
45113;BME280;30873;53.908;27.576;2022-12-10T12:59:52;1006.7;;;3.2;66.8
45113;BME280;30873;53.908;27.576;2022-12-10T13:04:59;1006.7;;;3.2;67
45113;BME280;30873;53.908;27.576;2022-12-10T13:09:27;1006.7;;;3.2;67.1
45113;BME280;30873;53.908;27.576;2022-12-10T13:14:53;1006.7;;;3.1;67.2
45113;BME280;30873;53.908;27.576;2022-12-10T13:19:51;1006.8;;;3.1;67.5
45113;BME280;30873;53.908;27.576;2022-12-10T13:25:05;1006.8;;;3.2;67.4
45113;BME280;30873;53.908;27.576;2022-12-10T13:29:27;1006.9;;;3.1;67.2
45113;BME280;30873;53.908;27.576;2022-12-10T13:35:33;1006.9;;;3;67.4
45113;BME280;30873;53.908;27.576;2022-12-10T13:39:53;1006.8;;;2.9;67.9
45113;BME280;30873;53.908;27.576;2022-12-10T13:44:36;1006.7;;;2.8;67.8
45113;BME280;30873;53.908;27.576;2022-12-10T13:49:28;1006.8;;;2.7;68.3
45113;BME280;30873;53.908;27.576;2022-12-10T13:55:07;1006.8;;;2.7;68.4
45113;BME280;30873;53.908;27.576;2022-12-10T13:59:39;1006.8;;;2.7;68.5
45113;BME280;30873;53.908;27.576;2022-12-10T14:05:05;1006.8;;;2.8;68.5
45113;BME280;30873;53.908;27.576;2022-12-10T14:09:28;1006.7;;;2.6;68.6
45113;BME280;30873;53.908;27.576;2022-12-10T14:14:38;1006.7;;;2.6;68.9
45113;BME280;30873;53.908;27.576;2022-12-10T14:19:53;1006.8;;;2.6;69
45113;BME280;30873;53.908;27.576;2022-12-10T14:24:49;1006.8;;;2.6;69
45113;BME280;30873;53.908;27.576;2022-12-10T14:29:17;1006.7;;;2.5;69.2
45113;BME280;30873;53.908;27.576;2022-12-10T14:35:02;1006.8;;;2.4;69.4
45113;BME280;30873;53.908;27.576;2022-12-10T14:39:49;1006.9;;;2.5;69.8
45113;BME280;30873;53.908;27.576;2022-12-10T14:44:37;1006.9;;;2.7;69.4
45113;BME280;30873;53.908;27.576;2022-12-10T14:49:26;1006.9;;;2.6;69.2
45113;BME280;30873;53.908;27.576;2022-12-10T14:54:59;1007;;;2.5;69.5
45113;BME280;30873;53.908;27.576;2022-12-10T14:59:49;1007;;;2.5;70
45113;BME280;30873;53.908;27.576;2022-12-10T15:05:01;1007;;;2.6;69.9
45113;BME280;30873;53.908;27.576;2022-12-10T15:09:35;1007;;;2.6;69.8
45113;BME280;30873;53.908;27.576;2022-12-10T15:14:27;1007;;;2.6;69.9
45113;BME280;30873;53.908;27.576;2022-12-10T15:19:49;1007.1;;;2.7;69.7
45113;BME280;30873;53.908;27.576;2022-12-10T15:24:59;1007.3;;;2.5;70
45113;BME280;30873;53.908;27.576;2022-12-10T15:29:27;1007.3;;;2.5;70.3
45113;BME280;30873;53.908;27.576;2022-12-10T15:34:50;1007.4;;;2.6;70.2
45113;BME280;30873;53.908;27.576;2022-12-10T15:39:50;1007.4;;;2.6;69.9
45113;BME280;30873;53.908;27.576;2022-12-10T15:44:38;1007.4;;;2.6;70
45113;BME280;30873;53.908;27.576;2022-12-10T15:49:25;1007.4;;;2.6;70
45113;BME280;30873;53.908;27.576;2022-12-10T15:54:38;1007.4;;;2.7;70.1
45113;BME280;30873;53.908;27.576;2022-12-10T15:59:35;1007.5;;;2.7;69.8
45113;BME280;30873;53.908;27.576;2022-12-10T16:04:49;1007.5;;;2.8;69.8
45113;BME280;30873;53.908;27.576;2022-12-10T16:09:49;1007.4;;;2.8;69.4
45113;BME280;30873;53.908;27.576;2022-12-10T16:14:49;1007.3;;;2.7;69.4
45113;BME280;30873;53.908;27.576;2022-12-10T16:19:47;1007.3;;;2.8;69.4
45113;BME280;30873;53.908;27.576;2022-12-10T16:24:51;1007.3;;;2.7;69.4
45113;BME280;30873;53.908;27.576;2022-12-10T16:29:15;1007.3;;;2.6;69.6
45113;BME280;30873;53.908;27.576;2022-12-10T16:34:49;1007.3;;;2.4;69.6
45113;BME280;30873;53.908;27.576;2022-12-10T16:39:59;1007.2;;;2.4;70.2
45113;BME280;30873;53.908;27.576;2022-12-10T16:44:25;1007.2;;;2.4;70.4
45113;BME280;30873;53.908;27.576;2022-12-10T16:49:15;1007.2;;;2.4;70
45113;BME280;30873;53.908;27.576;2022-12-10T16:54:27;1007.3;;;2.5;70.1
45113;BME280;30873;53.908;27.576;2022-12-10T16:59:35;1007.2;;;2.6;69.9
45113;BME280;30873;53.908;27.576;2022-12-10T17:05:01;1007.2;;;2.6;69.5
45113;BME280;30873;53.908;27.576;2022-12-10T17:09:15;1007.3;;;2.5;69.5
45113;BME280;30873;53.908;27.576;2022-12-10T17:14:51;1007.3;;;2.4;69.7
45113;BME280;30873;53.908;27.576;2022-12-10T17:19:47;1007.3;;;2.4;69.9
45113;BME280;30873;53.908;27.576;2022-12-10T17:24:49;1007.4;;;2.3;70
45113;BME280;30873;53.908;27.576;2022-12-10T17:29:25;1007.5;;;2.4;70
45113;BME280;30873;53.908;27.576;2022-12-10T17:34:49;1007.4;;;2.4;70
45113;BME280;30873;53.908;27.576;2022-12-10T17:39:59;1007.3;;;2.5;69.8
45113;BME280;30873;53.908;27.576;2022-12-10T17:44:35;1007.3;;;2.4;69.8
45113;BME280;30873;53.908;27.576;2022-12-10T17:49:15;1007.4;;;2.3;70.1
45113;BME280;30873;53.908;27.576;2022-12-10T17:54:37;1007.4;;;2.4;70.3
45113;BME280;30873;53.908;27.576;2022-12-10T17:59:33;1007.4;;;2.4;70
45113;BME280;30873;53.908;27.576;2022-12-10T18:04:59;1007.5;;;2.4;70
45113;BME280;30873;53.908;27.576;2022-12-10T18:09:23;1007.5;;;2.4;70.1
45113;BME280;30873;53.908;27.576;2022-12-10T18:14:49;1007.5;;;2.3;70.1
45113;BME280;30873;53.908;27.576;2022-12-10T18:19:45;1007.4;;;2.2;70.4
45113;BME280;30873;53.908;27.576;2022-12-10T18:24:49;1007.4;;;2.3;70.4
45113;BME280;30873;53.908;27.576;2022-12-10T18:29:47;1007.4;;;2.3;70.4
45113;BME280;30873;53.908;27.576;2022-12-10T18:34:47;1007.4;;;2.4;70.2
45113;BME280;30873;53.908;27.576;2022-12-10T18:39:59;1007.3;;;2.3;70.2
45113;BME280;30873;53.908;27.576;2022-12-10T18:44:33;1007.4;;;2.3;70.2
45113;BME280;30873;53.908;27.576;2022-12-10T18:49:23;1007.4;;;2.2;70.4
45113;BME280;30873;53.908;27.576;2022-12-10T18:54:15;1007.4;;;2.3;70.5
45113;BME280;30873;53.908;27.576;2022-12-10T18:59:33;1007.6;;;2.3;70.3
45113;BME280;30873;53.908;27.576;2022-12-10T19:04:59;1007.7;;;2.2;70.6
45113;BME280;30873;53.908;27.576;2022-12-10T19:09:35;1007.7;;;2.2;70.4
45113;BME280;30873;53.908;27.576;2022-12-10T19:14:47;1007.7;;;2.1;70.6
45113;BME280;30873;53.908;27.576;2022-12-10T19:19:35;1007.8;;;2.2;70.6
45113;BME280;30873;53.908;27.576;2022-12-10T19:24:49;1007.8;;;2.2;70.4
45113;BME280;30873;53.908;27.576;2022-12-10T19:29:18;1007.9;;;2.1;70.5
45113;BME280;30873;53.908;27.576;2022-12-10T19:34:47;1007.9;;;2.1;70.8
45113;BME280;30873;53.908;27.576;2022-12-10T19:40:01;1008;;;2.2;70.8
45113;BME280;30873;53.908;27.576;2022-12-10T19:44:37;1007.9;;;2.2;70.5
45113;BME280;30873;53.908;27.576;2022-12-10T19:49:25;1008;;;2.3;70.6
45113;BME280;30873;53.908;27.576;2022-12-10T19:54:35;1008;;;2.3;70.2
45113;BME280;30873;53.908;27.576;2022-12-10T19:59:49;1008;;;2.2;70.3
45113;BME280;30873;53.908;27.576;2022-12-10T20:05:01;1008.1;;;2.2;70.5
45113;BME280;30873;53.908;27.576;2022-12-10T20:09:25;1008.2;;;2.3;70.5
45113;BME280;30873;53.908;27.576;2022-12-10T20:14:51;1008.1;;;2.4;70
45113;BME280;30873;53.908;27.576;2022-12-10T20:19:49;1008;;;2.2;70
45113;BME280;30873;53.908;27.576;2022-12-10T20:24:51;1008;;;2.3;70.2
45113;BME280;30873;53.908;27.576;2022-12-10T20:29:37;1008.1;;;2.2;70
45113;BME280;30873;53.908;27.576;2022-12-10T20:35:02;1008.1;;;2.2;70.1
45113;BME280;30873;53.908;27.576;2022-12-10T20:39:35;1008.2;;;2.3;70.1
45113;BME280;30873;53.908;27.576;2022-12-10T20:44:37;1008.1;;;2.3;70.2
45113;BME280;30873;53.908;27.576;2022-12-10T20:49:25;1008.1;;;2.3;69.9
45113;BME280;30873;53.908;27.576;2022-12-10T20:54:35;1008.2;;;2.1;70
45113;BME280;30873;53.908;27.576;2022-12-10T21:00:02;1008.2;;;2.1;70.2
45113;BME280;30873;53.908;27.576;2022-12-10T21:04:47;1008.2;;;2.1;70.2
45113;BME280;30873;53.908;27.576;2022-12-10T21:09:25;1008.1;;;2.1;70.4
45113;BME280;30873;53.908;27.576;2022-12-10T21:14:51;1008;;;2.2;70.3
45113;BME280;30873;53.908;27.576;2022-12-10T21:19:47;1007.8;;;2.1;70.3
45113;BME280;30873;53.908;27.576;2022-12-10T21:24:51;1007.9;;;2.1;70.5
45113;BME280;30873;53.908;27.576;2022-12-10T21:29:25;1008.1;;;2.1;70.4
45113;BME280;30873;53.908;27.576;2022-12-10T21:34:59;1008.2;;;2.1;70.5
45113;BME280;30873;53.908;27.576;2022-12-10T21:39:35;1008.4;;;2.3;70.4
45113;BME280;30873;53.908;27.576;2022-12-10T21:44:37;1008.4;;;2.4;69.9
45113;BME280;30873;53.908;27.576;2022-12-10T21:49:37;1008.2;;;2.3;69.8
45113;BME280;30873;53.908;27.576;2022-12-10T21:54:35;1008.1;;;2.3;70.2
45113;BME280;30873;53.908;27.576;2022-12-10T21:59:57;1008.1;;;2.3;70.1
45113;BME280;30873;53.908;27.576;2022-12-10T22:04:45;1008;;;2.3;70
45113;BME280;30873;53.908;27.576;2022-12-10T22:09:15;1008;;;2.1;70.2
45113;BME280;30873;53.908;27.576;2022-12-10T22:14:49;1008.1;;;2.1;70.5
45113;BME280;30873;53.908;27.576;2022-12-10T22:19:33;1008.3;;;2;70.7
45113;BME280;30873;53.908;27.576;2022-12-10T22:24:49;1008.3;;;2.2;70.8
45113;BME280;30873;53.908;27.576;2022-12-10T22:29:23;1008.4;;;2.3;70.3
45113;BME280;30873;53.908;27.576;2022-12-10T22:34:59;1008.5;;;2.4;70.3
45113;BME280;30873;53.908;27.576;2022-12-10T22:39:15;1008.6;;;2.5;69.8
45113;BME280;30873;53.908;27.576;2022-12-10T22:44:33;1008.6;;;2.4;69.9
45113;BME280;30873;53.908;27.576;2022-12-10T22:49:23;1008.6;;;2.3;69.9
45113;BME280;30873;53.908;27.576;2022-12-10T22:54:35;1008.5;;;2.2;70.1
45113;BME280;30873;53.908;27.576;2022-12-10T22:59:59;1008.4;;;2.1;70.6
45113;BME280;30873;53.908;27.576;2022-12-10T23:04:47;1008.5;;;2.2;70.6
45113;BME280;30873;53.908;27.576;2022-12-10T23:09:15;1008.5;;;2.3;70.4
45113;BME280;30873;53.908;27.576;2022-12-10T23:14:47;1008.4;;;2.3;70.1
45113;BME280;30873;53.908;27.576;2022-12-10T23:19:47;1008.3;;;2.2;70.2
45113;BME280;30873;53.908;27.576;2022-12-10T23:24:47;1008.4;;;2.3;70.3
45113;BME280;30873;53.908;27.576;2022-12-10T23:29:23;1008.4;;;2.2;70.2
45113;BME280;30873;53.908;27.576;2022-12-10T23:34:59;1008.4;;;2.2;70.3
45113;BME280;30873;53.908;27.576;2022-12-10T23:39:33;1008.5;;;2.1;70.3
45113;BME280;30873;53.908;27.576;2022-12-10T23:44:35;1008.5;;;2.2;70.6
45113;BME280;30873;53.908;27.576;2022-12-10T23:49:23;1008.4;;;2.3;70.4
45113;BME280;30873;53.908;27.576;2022-12-10T23:54:35;1008.3;;;2.2;70.2
45113;BME280;30873;53.908;27.576;2022-12-10T23:59:57;1008.2;;;2.1;70.5
